createdAt,value
2023-05-07T00:00:43.520Z,22.06
2023-05-07T00:03:12.477Z,22.65
2023-05-07T00:05:42.535Z,22.78
2023-05-07T00:08:10.304Z,22.34
2023-05-07T00:10:37.992Z,21.93
2023-05-07T00:13:05.940Z,22.37
2023-05-07T00:15:33.676Z,22.52
2023-05-07T00:18:01.498Z,22.14
2023-05-07T00:20:29.255Z,22.07
2023-05-07T00:22:58.347Z,22.34
2023-05-07T00:25:26.064Z,22.42
2023-05-07T00:27:54.021Z,22.03
2023-05-07T00:30:21.827Z,22.20
2023-05-07T00:32:50.152Z,22.38
2023-05-07T00:35:17.911Z,22.24
2023-05-07T00:37:45.711Z,21.50
2023-05-07T00:40:15.474Z,21.60
2023-05-07T00:42:47.934Z,21.16
2023-05-07T00:45:15.944Z,21.59
2023-05-07T00:47:43.893Z,22.00
2023-05-07T00:50:13.710Z,22.02
2023-05-07T00:52:42.742Z,22.06
2023-05-07T00:55:10.889Z,22.13
2023-05-07T00:57:42.096Z,22.25
2023-05-07T01:00:11.553Z,22.04
2023-05-07T01:02:40.398Z,22.19
2023-05-07T01:05:10.438Z,21.52
2023-05-07T01:07:39.335Z,21.37
2023-05-07T01:10:08.144Z,21.81
2023-05-07T01:12:36.809Z,21.97
2023-05-07T01:15:07.771Z,21.97
2023-05-07T01:17:36.051Z,22.00
2023-05-07T01:20:05.894Z,21.79
2023-05-07T01:22:35.726Z,21.16
2023-05-07T01:25:03.702Z,20.40
2023-05-07T01:27:31.458Z,21.03
2023-05-07T01:30:20.795Z,20.89
2023-05-07T01:33:01.582Z,20.81
2023-05-07T01:35:34.332Z,20.77
2023-05-07T01:38:05.730Z,21.36
2023-05-07T01:40:33.665Z,20.77
2023-05-07T01:43:01.416Z,20.94
2023-05-07T01:45:29.329Z,20.90
2023-05-07T01:47:57.546Z,19.88
2023-05-07T01:50:25.572Z,20.11
2023-05-07T01:52:53.515Z,19.83
2023-05-07T01:55:22.690Z,19.68
2023-05-07T01:57:50.328Z,20.94
2023-05-07T02:00:18.602Z,20.98
2023-05-07T02:02:46.482Z,20.62
2023-05-07T02:05:14.216Z,20.97
2023-05-07T02:07:41.912Z,21.26
2023-05-07T02:10:30.903Z,20.78
2023-05-07T02:12:58.690Z,20.82
2023-05-07T02:15:26.816Z,20.99
2023-05-07T02:18:02.224Z,20.99
2023-05-07T02:20:30.452Z,21.00
2023-05-07T02:22:58.334Z,20.52
2023-05-07T02:25:26.051Z,20.94
2023-05-07T02:27:55.629Z,20.45
2023-05-07T02:30:23.325Z,20.52
2023-05-07T02:32:51.162Z,20.74
2023-05-07T02:35:19.121Z,21.08
2023-05-07T02:37:46.813Z,20.42
2023-05-07T02:40:15.030Z,19.66
2023-05-07T02:42:42.747Z,19.82
2023-05-07T02:45:12.699Z,19.77
2023-05-07T02:47:40.380Z,20.21
2023-05-07T02:50:09.977Z,20.29
2023-05-07T02:52:38.171Z,20.51
2023-05-07T02:55:06.763Z,20.04
2023-05-07T02:57:34.466Z,20.24
2023-05-07T03:00:02.534Z,19.92
2023-05-07T03:02:31.774Z,19.68
2023-05-07T03:04:59.664Z,20.18
2023-05-07T03:07:27.333Z,20.05
2023-05-07T03:09:55.232Z,19.53
2023-05-07T03:12:23.158Z,19.28
2023-05-07T03:14:50.830Z,19.42
2023-05-07T03:17:18.501Z,19.77
2023-05-07T03:19:47.557Z,19.83
2023-05-07T03:22:15.360Z,20.54
2023-05-07T03:24:43.059Z,19.93
2023-05-07T03:27:10.832Z,19.71
2023-05-07T03:29:38.938Z,20.03
2023-05-07T03:32:06.971Z,20.44
2023-05-07T03:34:34.807Z,20.44
2023-05-07T03:37:03.886Z,20.34
2023-05-07T03:39:31.678Z,20.50
2023-05-07T03:41:59.946Z,20.00
2023-05-07T03:44:27.840Z,20.00
2023-05-07T03:46:56.385Z,20.34
2023-05-07T03:49:24.160Z,20.38
2023-05-07T03:51:51.884Z,20.59
2023-05-07T03:54:20.986Z,20.61
2023-05-07T03:56:48.666Z,20.20
2023-05-07T03:59:16.375Z,20.21
2023-05-07T04:01:44.384Z,20.21
2023-05-07T04:04:12.212Z,19.90
2023-05-07T04:06:39.924Z,19.71
2023-05-07T04:09:07.759Z,19.69
2023-05-07T04:11:38.261Z,20.57
2023-05-07T04:14:06.292Z,20.49
2023-05-07T04:16:34.095Z,20.25
2023-05-07T04:19:01.761Z,20.42
2023-05-07T04:21:29.533Z,20.29
2023-05-07T04:23:58.044Z,20.25
2023-05-07T04:26:25.729Z,19.76
2023-05-07T04:28:54.849Z,19.89
2023-05-07T04:31:22.994Z,19.76
2023-05-07T04:33:51.715Z,19.88
2023-05-07T04:36:19.948Z,19.83
2023-05-07T04:38:47.648Z,20.43
2023-05-07T04:41:16.149Z,20.60
2023-05-07T04:43:44.045Z,20.60
2023-05-07T04:46:13.248Z,20.20
2023-05-07T04:48:40.998Z,20.68
2023-05-07T04:51:08.693Z,20.31
2023-05-07T04:53:36.440Z,20.24
2023-05-07T04:56:04.405Z,20.45
2023-05-07T04:58:33.056Z,20.75
2023-05-07T05:01:01.457Z,21.04
2023-05-07T05:03:31.190Z,20.43
2023-05-07T05:06:00.423Z,20.13
2023-05-07T05:08:28.208Z,20.14
2023-05-07T05:10:55.896Z,20.34
2023-05-07T05:13:23.643Z,20.14
2023-05-07T05:15:51.958Z,21.37
2023-05-07T05:18:19.894Z,20.30
2023-05-07T05:20:48.965Z,20.88
2023-05-07T05:23:16.642Z,21.48
2023-05-07T05:25:44.275Z,21.69
2023-05-07T05:28:11.921Z,20.83
2023-05-07T05:30:39.564Z,21.90
2023-05-07T05:36:29.106Z,21.12
2023-05-07T05:38:57.418Z,21.93
2023-05-07T05:41:25.106Z,20.67
2023-05-07T05:43:52.733Z,20.88
2023-05-07T05:46:20.503Z,21.14
2023-05-07T05:48:48.263Z,20.42
2023-05-07T05:51:15.885Z,19.54
2023-05-07T05:53:44.976Z,20.57
2023-05-07T05:56:12.679Z,20.62
2023-05-07T05:58:40.348Z,19.92
2023-05-07T06:01:08.276Z,21.20
2023-05-07T06:03:35.918Z,21.40
2023-05-07T06:06:03.723Z,22.29
2023-05-07T06:08:31.927Z,21.04
2023-05-07T06:11:01.521Z,21.58
2023-05-07T06:13:29.298Z,20.81
2023-05-07T06:15:56.970Z,20.93
2023-05-07T06:18:25.018Z,21.77
2023-05-07T06:20:53.931Z,22.21
2023-05-07T06:23:21.568Z,21.73
2023-05-07T06:25:50.948Z,21.89
2023-05-07T06:28:20.207Z,21.63
2023-05-07T06:30:48.280Z,22.14
2023-05-07T06:33:15.970Z,21.99
2023-05-07T06:35:43.913Z,21.34
2023-05-07T06:38:12.057Z,23.06
2023-05-07T06:40:39.694Z,22.68
2023-05-07T06:43:07.366Z,21.39
2023-05-07T06:45:36.524Z,22.79
2023-05-07T06:48:04.624Z,22.65
2023-05-07T06:50:32.361Z,22.08
2023-05-07T06:53:00.132Z,22.12
2023-05-07T06:55:27.858Z,22.72
2023-05-07T06:57:55.480Z,22.40
2023-05-07T07:00:23.237Z,22.91
2023-05-07T07:02:52.302Z,22.61
2023-05-07T07:05:20.409Z,23.34
2023-05-07T07:07:53.573Z,23.14
2023-05-07T07:10:21.423Z,22.19
2023-05-07T07:12:49.156Z,21.91
2023-05-07T07:15:17.072Z,22.96
2023-05-07T07:17:44.721Z,23.68
2023-05-07T07:20:14.288Z,21.97
2023-05-07T07:22:48.558Z,23.11
2023-05-07T07:25:16.247Z,22.78
2023-05-07T07:27:43.926Z,23.54
2023-05-07T07:30:12.227Z,22.43
2023-05-07T07:32:40.122Z,24.04
2023-05-07T07:35:09.224Z,23.85
2023-05-07T07:37:38.343Z,23.62
2023-05-07T07:40:06.825Z,23.95
2023-05-07T07:42:34.580Z,23.91
2023-05-07T07:45:02.274Z,25.29
2023-05-07T07:47:30.178Z,23.98
2023-05-07T07:50:00.241Z,23.91
2023-05-07T07:52:27.932Z,23.40
2023-05-07T07:54:57.081Z,23.61
2023-05-07T07:57:24.821Z,23.92
2023-05-07T07:59:52.918Z,24.90
2023-05-07T08:02:20.718Z,25.08
2023-05-07T08:04:48.718Z,23.56
2023-05-07T08:07:16.517Z,24.36
2023-05-07T08:09:44.469Z,25.10
2023-05-07T08:12:13.759Z,24.84
2023-05-07T08:14:41.553Z,23.52
2023-05-07T08:17:10.822Z,24.28
2023-05-07T08:19:38.814Z,25.01
2023-05-07T08:22:06.744Z,25.48
2023-05-07T08:27:21.605Z,25.08
2023-05-07T08:29:49.882Z,25.16
2023-05-07T08:32:17.592Z,23.94
2023-05-07T08:34:45.313Z,25.59
2023-05-07T08:37:21.007Z,24.70
2023-05-07T08:39:48.745Z,24.88
2023-05-07T08:42:18.838Z,25.51
2023-05-07T08:44:49.034Z,25.22
2023-05-07T08:47:17.047Z,25.13
2023-05-07T08:49:44.814Z,25.88
2023-05-07T08:52:14.230Z,24.77
2023-05-07T08:54:42.251Z,25.42
2023-05-07T08:57:10.276Z,25.17
2023-05-07T08:59:38.046Z,25.32
2023-05-07T09:02:10.024Z,25.56
2023-05-07T09:04:37.839Z,26.73
2023-05-07T09:07:06.606Z,25.74
2023-05-07T09:09:34.643Z,25.71
2023-05-07T09:12:03.151Z,26.06
2023-05-07T09:14:31.206Z,25.96
2023-05-07T09:16:58.935Z,26.25
2023-05-07T09:19:28.677Z,26.27
2023-05-07T09:22:02.798Z,25.79
2023-05-07T09:24:35.180Z,25.88
2023-05-07T09:27:03.621Z,25.12
2023-05-07T09:29:36.150Z,26.99
2023-05-07T09:32:04.979Z,25.47
2023-05-07T09:34:34.606Z,27.00
2023-05-07T09:37:03.100Z,25.90
2023-05-07T09:39:40.899Z,25.46
2023-05-07T09:42:08.646Z,25.33
2023-05-07T09:44:57.704Z,26.72
2023-05-07T09:47:26.582Z,25.90
2023-05-07T09:49:59.776Z,26.75
2023-05-07T09:52:29.712Z,26.85
2023-05-07T09:55:00.267Z,26.11
2023-05-07T09:57:28.384Z,27.36
2023-05-07T09:59:56.676Z,27.66
2023-05-07T10:02:25.967Z,26.96
2023-05-07T10:05:02.928Z,26.07
2023-05-07T10:07:30.826Z,26.56
2023-05-07T10:09:59.543Z,26.76
2023-05-07T10:12:27.434Z,26.89
2023-05-07T10:14:55.202Z,25.64
2023-05-07T10:17:23.032Z,27.18
2023-05-07T10:19:51.556Z,27.37
2023-05-07T10:22:21.698Z,25.59
2023-05-07T10:24:51.214Z,27.34
2023-05-07T10:27:19.532Z,27.50
2023-05-07T10:30:00.784Z,26.49
2023-05-07T10:32:37.749Z,27.78
2023-05-07T10:35:10.906Z,26.29
2023-05-07T10:37:40.154Z,27.84
2023-05-07T10:40:09.204Z,27.85
2023-05-07T10:42:37.249Z,28.15
2023-05-07T10:45:15.234Z,26.88
2023-05-07T10:50:44.757Z,27.69
2023-05-07T10:53:29.357Z,28.32
2023-05-07T10:56:28.931Z,28.41
2023-05-07T10:58:56.636Z,28.62
2023-05-07T11:01:53.132Z,28.60
2023-05-07T11:04:25.776Z,28.54
2023-05-07T11:07:28.141Z,28.49
2023-05-07T11:09:59.533Z,28.46
2023-05-07T11:12:55.520Z,27.81
2023-05-07T11:15:40.012Z,28.63
2023-05-07T11:18:07.936Z,28.68
2023-05-07T11:20:50.031Z,28.98
2023-05-07T11:23:59.489Z,29.42
2023-05-07T11:26:29.713Z,29.38
2023-05-07T11:29:13.305Z,28.87
2023-05-07T11:31:41.233Z,28.10
2023-05-07T11:34:09.024Z,27.23
2023-05-07T11:36:36.791Z,28.62
2023-05-07T11:39:04.719Z,28.29
2023-05-07T11:41:38.443Z,28.95
2023-05-07T11:44:06.401Z,28.65
2023-05-07T11:46:34.404Z,30.12
2023-05-07T11:49:02.847Z,29.75
2023-05-07T11:51:30.969Z,30.79
2023-05-07T11:53:58.650Z,29.87
2023-05-07T11:56:26.548Z,29.86
2023-05-07T11:58:56.000Z,30.37
2023-05-07T12:01:23.687Z,30.40
2023-05-07T12:03:51.425Z,30.40
2023-05-07T12:06:20.084Z,30.26
2023-05-07T12:08:48.702Z,28.40
2023-05-07T12:11:19.028Z,31.30
2023-05-07T12:14:00.432Z,30.79
2023-05-07T12:16:28.597Z,30.54
2023-05-07T12:18:57.042Z,29.58
2023-05-07T12:21:26.207Z,31.68
2023-05-07T12:23:53.948Z,30.92
2023-05-07T12:26:22.748Z,31.15
2023-05-07T12:28:50.494Z,31.83
2023-05-07T12:31:19.929Z,31.69
2023-05-07T12:33:47.617Z,31.23
2023-05-07T12:36:15.570Z,33.01
2023-05-07T12:38:43.263Z,33.32
2023-05-07T12:41:13.371Z,32.85
2023-05-07T12:43:41.298Z,32.21
2023-05-07T12:46:09.845Z,32.13
2023-05-07T12:48:41.060Z,31.98
2023-05-07T12:51:11.235Z,32.76
2023-05-07T12:53:42.315Z,31.97
2023-05-07T12:56:09.994Z,33.70
2023-05-07T12:58:38.126Z,32.99
2023-05-07T13:01:07.718Z,32.69
2023-05-07T13:03:37.127Z,34.07
2023-05-07T13:06:07.800Z,32.43
2023-05-07T13:08:37.358Z,33.93
2023-05-07T13:11:06.443Z,33.87
2023-05-07T13:13:34.963Z,33.07
2023-05-07T13:16:03.148Z,33.90
2023-05-07T13:18:32.652Z,33.24
2023-05-07T13:23:39.604Z,32.58
2023-05-07T13:26:25.026Z,33.12
2023-05-07T13:28:54.156Z,34.16
2023-05-07T13:31:22.083Z,33.47
2023-05-07T13:33:49.786Z,34.66
2023-05-07T13:36:17.696Z,34.37
2023-05-07T13:38:47.493Z,33.66
2023-05-07T13:41:15.822Z,31.69
2023-05-07T13:43:43.489Z,32.82
2023-05-07T13:46:11.295Z,32.71
2023-05-07T13:48:38.995Z,32.72
2023-05-07T13:51:06.745Z,32.80
2023-05-07T13:53:34.406Z,34.32
2023-05-07T13:56:05.585Z,34.33
2023-05-07T13:58:33.569Z,33.30
2023-05-07T14:01:01.633Z,33.37
2023-05-07T14:03:29.398Z,33.84
2023-05-07T14:05:58.810Z,31.94
2023-05-07T14:08:26.757Z,31.88
2023-05-07T14:10:54.348Z,31.86
2023-05-07T14:13:23.492Z,31.58
2023-05-07T14:15:51.454Z,30.34
2023-05-07T14:18:19.101Z,29.99
2023-05-07T14:20:48.590Z,30.23
2023-05-07T14:23:18.502Z,30.75
2023-05-07T14:25:48.646Z,30.35
2023-05-07T14:28:16.396Z,28.84
2023-05-07T14:30:45.465Z,30.11
2023-05-07T14:33:13.263Z,30.15
2023-05-07T14:35:40.903Z,29.26
2023-05-07T14:38:10.450Z,29.83
2023-05-07T14:40:38.383Z,30.24
2023-05-07T14:43:06.183Z,29.62
2023-05-07T14:45:33.952Z,28.83
2023-05-07T14:48:03.201Z,29.31
2023-05-07T14:50:30.897Z,29.54
2023-05-07T14:52:58.786Z,29.95
2023-05-07T14:55:26.515Z,29.62
2023-05-07T14:57:54.177Z,29.03
2023-05-07T15:00:22.368Z,28.73
2023-05-07T15:02:50.213Z,29.28
2023-05-07T15:05:20.325Z,29.26
2023-05-07T15:07:48.323Z,29.01
2023-05-07T15:10:16.844Z,28.68
2023-05-07T15:12:44.573Z,29.00
2023-05-07T15:15:13.199Z,28.45
2023-05-07T15:17:41.386Z,28.27
2023-05-07T15:20:09.859Z,28.23
2023-05-07T15:22:40.053Z,27.81
2023-05-07T15:25:10.412Z,29.28
2023-05-07T15:27:38.513Z,29.05
2023-05-07T15:30:07.731Z,27.79
2023-05-07T15:32:35.523Z,28.17
2023-05-07T15:35:03.404Z,28.38
2023-05-07T15:37:32.486Z,28.09
2023-05-07T15:40:03.326Z,28.64
2023-05-07T15:42:31.109Z,28.88
2023-05-07T15:45:01.330Z,27.72
2023-05-07T15:47:29.175Z,27.80
2023-05-07T15:49:56.879Z,27.54
2023-05-07T15:52:24.628Z,27.94
2023-05-07T15:54:52.281Z,27.31
2023-05-07T15:57:22.352Z,26.84
2023-05-07T15:59:50.187Z,27.23
2023-05-07T16:02:18.206Z,27.84
2023-05-07T16:04:45.879Z,27.69
2023-05-07T16:07:13.833Z,27.45
2023-05-07T16:09:41.692Z,27.05
2023-05-07T16:12:09.351Z,27.91
2023-05-07T16:14:38.524Z,26.68
2023-05-07T16:17:06.374Z,27.54
2023-05-07T16:19:34.296Z,26.69
2023-05-07T16:22:02.017Z,26.26
2023-05-07T16:24:29.737Z,27.20
2023-05-07T16:29:32.636Z,26.55
2023-05-07T16:32:01.797Z,26.82
2023-05-07T16:34:30.942Z,27.61
2023-05-07T16:36:59.950Z,27.16
2023-05-07T16:39:27.678Z,27.33
2023-05-07T16:41:55.405Z,27.85
2023-05-07T16:44:23.474Z,27.07
2023-05-07T16:46:52.040Z,27.01
2023-05-07T16:49:21.174Z,27.58
2023-05-07T16:51:48.842Z,25.84
2023-05-07T16:54:32.393Z,25.89
2023-05-07T16:57:00.184Z,26.46
2023-05-07T16:59:31.481Z,25.32
2023-05-07T17:01:59.436Z,26.44
2023-05-07T17:04:29.856Z,26.76
2023-05-07T17:06:57.895Z,26.49
2023-05-07T17:09:25.683Z,25.39
2023-05-07T17:11:53.371Z,25.63
2023-05-07T17:14:21.024Z,26.01
2023-05-07T17:17:04.056Z,25.35
2023-05-07T17:19:33.322Z,25.72
2023-05-07T17:22:00.993Z,24.82
2023-05-07T17:24:28.612Z,25.09
2023-05-07T17:26:56.288Z,26.07
2023-05-07T17:29:23.906Z,25.35
2023-05-07T17:31:51.699Z,24.39
2023-05-07T17:34:19.755Z,24.50
2023-05-07T17:36:49.098Z,24.85
2023-05-07T17:39:16.706Z,24.55
2023-05-07T17:41:44.379Z,24.69
2023-05-07T17:44:12.042Z,24.37
2023-05-07T17:46:39.865Z,23.98
2023-05-07T17:49:07.523Z,24.36
2023-05-07T17:51:49.662Z,23.68
2023-05-07T17:54:34.514Z,23.85
2023-05-07T17:57:02.176Z,24.11
2023-05-07T17:59:29.932Z,24.29
2023-05-07T18:01:57.799Z,24.92
2023-05-07T18:04:26.863Z,24.38
2023-05-07T18:06:54.585Z,24.19
2023-05-07T18:09:22.316Z,24.63
2023-05-07T18:11:51.379Z,24.50
2023-05-07T18:14:24.004Z,23.25
2023-05-07T18:16:51.962Z,23.82
2023-05-07T18:19:19.885Z,24.28
2023-05-07T18:21:47.721Z,24.03
2023-05-07T18:24:17.782Z,23.52
2023-05-07T18:26:45.526Z,23.49
2023-05-07T18:29:14.743Z,23.73
2023-05-07T18:31:42.507Z,24.59
2023-05-07T18:34:31.393Z,24.22
2023-05-07T18:36:59.521Z,24.28
2023-05-07T18:39:27.381Z,23.85
2023-05-07T18:41:55.144Z,24.19
2023-05-07T18:44:24.202Z,24.24
2023-05-07T18:46:51.904Z,22.84
2023-05-07T18:49:19.713Z,23.83
2023-05-07T18:51:47.397Z,23.68
2023-05-07T18:54:15.015Z,23.21
2023-05-07T18:56:43.272Z,23.12
2023-05-07T18:59:11.058Z,22.80
2023-05-07T19:01:40.197Z,23.32
2023-05-07T19:04:08.088Z,23.85
2023-05-07T19:06:35.791Z,22.94
2023-05-07T19:09:04.943Z,23.40
2023-05-07T19:11:32.565Z,22.70
2023-05-07T19:14:01.717Z,22.68
2023-05-07T19:16:30.724Z,23.33
2023-05-07T19:19:00.101Z,22.70
2023-05-07T19:21:28.626Z,22.88
2023-05-07T19:23:57.441Z,22.25
2023-05-07T19:26:26.503Z,22.70
2023-05-07T19:29:11.773Z,23.47
2023-05-07T19:31:41.915Z,23.47
2023-05-07T19:34:13.248Z,23.14
2023-05-07T19:36:41.356Z,22.22
2023-05-07T19:39:09.055Z,22.55
2023-05-07T19:41:37.052Z,22.69
2023-05-07T19:44:05.093Z,22.80
2023-05-07T19:46:32.880Z,22.12
2023-05-07T19:49:01.384Z,22.64
2023-05-07T19:51:32.584Z,22.79
2023-05-07T19:54:00.271Z,22.90
2023-05-07T19:56:27.992Z,21.70
2023-05-07T19:58:55.677Z,22.03
2023-05-07T20:01:23.422Z,22.27
2023-05-07T20:03:51.492Z,22.81
2023-05-07T20:06:19.421Z,22.02
2023-05-07T20:08:48.527Z,21.73
2023-05-07T20:11:16.164Z,21.83
2023-05-07T20:13:43.934Z,22.03
2023-05-07T20:16:11.762Z,21.29
2023-05-07T20:18:39.449Z,20.50
2023-05-07T20:21:07.207Z,22.29
2023-05-07T20:23:34.863Z,21.93
2023-05-07T20:26:03.999Z,22.07
2023-05-07T20:28:31.882Z,21.65
2023-05-07T20:30:59.509Z,22.11
2023-05-07T20:36:19.103Z,22.42
2023-05-07T20:38:46.840Z,21.95
2023-05-07T20:41:16.402Z,21.43
2023-05-07T20:43:44.252Z,22.08
2023-05-07T20:46:12.262Z,21.97
2023-05-07T20:48:39.957Z,22.16
2023-05-07T20:51:10.416Z,22.28
2023-05-07T20:53:40.603Z,20.68
2023-05-07T20:56:08.323Z,21.53
2023-05-07T20:58:37.860Z,22.01
2023-05-07T21:01:06.796Z,21.66
2023-05-07T21:03:34.569Z,21.74
2023-05-07T21:06:03.118Z,21.60
2023-05-07T21:08:31.039Z,21.75
2023-05-07T21:10:59.229Z,22.53
2023-05-07T21:13:27.002Z,21.77
2023-05-07T21:15:56.082Z,22.01
2023-05-07T21:18:26.703Z,21.92
2023-05-07T21:20:54.372Z,22.33
2023-05-07T21:23:22.278Z,21.90
2023-05-07T21:25:51.788Z,21.60
2023-05-07T21:28:19.465Z,20.91
2023-05-07T21:30:47.088Z,20.62
2023-05-07T21:33:16.335Z,20.79
2023-05-07T21:35:44.070Z,20.04
2023-05-07T21:38:12.560Z,20.90
2023-05-07T21:40:40.518Z,20.45
2023-05-07T21:43:08.190Z,21.05
2023-05-07T21:45:35.928Z,21.13
2023-05-07T21:48:03.638Z,21.75
2023-05-07T21:50:33.173Z,22.33
2023-05-07T21:53:01.070Z,22.14
2023-05-07T21:55:28.748Z,21.57
2023-05-07T21:58:05.100Z,21.76
2023-05-07T22:00:34.172Z,21.17
2023-05-07T22:03:01.944Z,21.82
2023-05-07T22:05:29.709Z,21.16
2023-05-07T22:07:58.770Z,21.45
2023-05-07T22:10:26.680Z,21.19
2023-05-07T22:12:54.396Z,22.04
2023-05-07T22:15:22.114Z,21.81
2023-05-07T22:17:49.866Z,22.08
2023-05-07T22:20:17.767Z,21.51
2023-05-07T22:22:47.523Z,21.55
2023-05-07T22:25:18.604Z,21.15
2023-05-07T22:27:46.241Z,21.25
2023-05-07T22:30:14.400Z,21.07
2023-05-07T22:32:43.244Z,20.58
2023-05-07T22:35:11.711Z,21.86
2023-05-07T22:37:39.441Z,21.47
2023-05-07T22:40:08.168Z,21.71
2023-05-07T22:42:37.248Z,19.66
2023-05-07T22:45:05.775Z,19.77
2023-05-07T22:47:33.504Z,20.68
2023-05-07T22:50:01.708Z,20.72
2023-05-07T22:52:29.335Z,19.53
2023-05-07T22:54:57.022Z,19.66
2023-05-07T22:57:24.715Z,20.58
2023-05-07T22:59:56.265Z,20.13
2023-05-07T23:02:24.316Z,19.92
2023-05-07T23:04:52.094Z,19.56
2023-05-07T23:07:20.022Z,19.41
2023-05-07T23:09:47.685Z,20.13
2023-05-07T23:12:15.391Z,20.98
2023-05-07T23:14:43.053Z,20.74
2023-05-07T23:17:12.330Z,21.08
2023-05-07T23:19:40.119Z,20.51
2023-05-07T23:22:07.864Z,18.83
2023-05-07T23:24:35.882Z,19.53
2023-05-07T23:27:06.708Z,19.46
2023-05-07T23:29:34.516Z,20.28
2023-05-07T23:32:02.588Z,19.96
2023-05-07T23:34:31.632Z,19.94
2023-05-07T23:36:59.287Z,19.92
2023-05-07T23:39:27.169Z,20.18
2023-05-07T23:41:55.147Z,21.10
2023-05-07T23:44:22.831Z,19.74
2023-05-07T23:46:50.977Z,19.07
2023-05-07T23:49:18.661Z,19.41
2023-05-07T23:51:47.713Z,19.92
2023-05-07T23:54:15.794Z,19.67
2023-05-07T23:56:43.471Z,19.70
2023-05-07T23:59:11.201Z,19.57
